createdAt,value
2024-02-14T00:00:16.426Z,10.48
2024-02-14T00:03:14.944Z,6.45
2024-02-14T00:06:15.295Z,7.13
2024-02-14T00:09:13.681Z,6.40
2024-02-14T00:12:13.482Z,7.07
2024-02-14T00:15:12.103Z,6.65
2024-02-14T00:18:11.159Z,6.65
2024-02-14T00:21:09.546Z,6.10
2024-02-14T00:24:08.426Z,6.15
2024-02-14T00:27:06.966Z,6.43
2024-02-14T00:30:06.393Z,7.13
2024-02-14T00:33:05.198Z,6.25
2024-02-14T00:36:03.985Z,9.27
2024-02-14T00:39:02.634Z,9.75
2024-02-14T00:42:05.643Z,8.07
2024-02-14T00:45:05.050Z,7.15
2024-02-14T00:48:06.092Z,7.07
2024-02-14T00:51:04.620Z,5.80
2024-02-14T00:54:03.440Z,6.35
2024-02-14T00:57:01.860Z,6.15
2024-02-14T01:00:01.843Z,7.22
2024-02-14T01:03:00.769Z,6.18
2024-02-14T01:05:59.360Z,7.55
2024-02-14T01:08:57.785Z,6.00
2024-02-14T01:11:56.295Z,10.18
2024-02-14T01:14:55.463Z,10.35
2024-02-14T01:17:53.995Z,9.70
2024-02-14T01:20:52.673Z,10.68
2024-02-14T01:23:51.260Z,9.75
2024-02-14T01:26:49.548Z,9.85
2024-02-14T01:29:48.054Z,7.95
2024-02-14T01:32:46.633Z,7.90
2024-02-14T01:35:48.006Z,9.88
2024-02-14T01:38:47.076Z,9.02
2024-02-14T01:41:50.366Z,8.13
2024-02-14T01:47:47.386Z,7.43
2024-02-14T01:50:45.957Z,7.10
2024-02-14T01:53:44.906Z,8.88
2024-02-14T01:56:44.682Z,10.05
2024-02-14T01:59:43.253Z,11.18
2024-02-14T02:02:41.791Z,11.70
2024-02-14T02:05:40.446Z,14.60
2024-02-14T02:08:38.929Z,15.98
2024-02-14T02:11:53.662Z,17.13
2024-02-14T02:14:52.046Z,17.25
2024-02-14T02:18:03.327Z,24.20
2024-02-14T02:21:02.596Z,16.90
2024-02-14T02:24:01.114Z,18.55
2024-02-14T02:26:59.529Z,16.33
2024-02-14T02:29:58.031Z,19.65
2024-02-14T02:32:56.527Z,15.38
2024-02-14T02:35:55.096Z,11.15
2024-02-14T02:38:53.738Z,10.63
2024-02-14T02:41:52.462Z,8.98
2024-02-14T02:44:53.763Z,12.50
2024-02-14T02:47:53.701Z,19.27
2024-02-14T02:50:52.911Z,14.43
2024-02-14T02:53:51.554Z,14.52
2024-02-14T02:56:49.854Z,21.40
2024-02-14T02:59:50.333Z,16.48
2024-02-14T03:02:48.965Z,37.90
2024-02-14T03:05:47.694Z,56.58
2024-02-14T03:08:46.178Z,65.75
2024-02-14T03:11:44.714Z,60.53
2024-02-14T03:14:45.048Z,58.00
2024-02-14T03:17:44.512Z,60.15
2024-02-14T03:20:42.946Z,61.13
2024-02-14T03:23:41.960Z,65.07
2024-02-14T03:26:40.363Z,61.75
2024-02-14T03:29:40.900Z,55.05
2024-02-14T03:32:39.267Z,46.95
2024-02-14T03:35:37.895Z,51.53
2024-02-14T03:38:37.437Z,45.80
2024-02-14T03:41:36.082Z,34.90
2024-02-14T03:44:34.695Z,36.75
2024-02-14T03:47:34.744Z,32.10
2024-02-14T03:50:34.634Z,31.63
2024-02-14T03:53:35.267Z,42.97
2024-02-14T03:56:34.586Z,38.97
2024-02-14T03:59:34.652Z,39.28
2024-02-14T04:02:33.715Z,35.70
2024-02-14T04:05:32.527Z,29.02
2024-02-14T04:08:31.574Z,31.65
2024-02-14T04:11:30.181Z,32.30
2024-02-14T04:14:28.696Z,35.35
2024-02-14T04:17:27.374Z,29.83
2024-02-14T04:20:25.891Z,26.73
2024-02-14T04:23:25.048Z,23.73
2024-02-14T04:26:24.856Z,20.77
2024-02-14T04:29:23.324Z,16.20
2024-02-14T04:32:21.772Z,16.38
2024-02-14T04:35:22.528Z,22.15
2024-02-14T04:38:21.653Z,22.17
2024-02-14T04:41:20.225Z,25.42
2024-02-14T04:44:18.531Z,28.88
2024-02-14T04:47:17.025Z,24.15
2024-02-14T04:50:15.908Z,26.70
2024-02-14T04:53:14.378Z,21.88
2024-02-14T04:56:12.841Z,19.38
2024-02-14T04:59:11.450Z,19.25
2024-02-14T05:02:09.773Z,14.98
2024-02-14T05:05:10.309Z,23.83
2024-02-14T05:08:09.106Z,24.02
2024-02-14T05:11:07.743Z,32.17
2024-02-14T05:14:06.016Z,27.92
2024-02-14T05:17:04.620Z,20.55
2024-02-14T05:20:02.985Z,21.10
2024-02-14T05:23:01.912Z,27.13
2024-02-14T05:26:00.195Z,24.52
2024-02-14T05:28:58.680Z,23.45
2024-02-14T05:31:57.365Z,25.75
2024-02-14T05:34:56.484Z,23.48
2024-02-14T05:37:56.277Z,49.90
2024-02-14T05:40:54.820Z,51.88
2024-02-14T05:43:53.221Z,56.00
2024-02-14T05:46:51.651Z,49.22
2024-02-14T05:49:50.011Z,46.88
2024-02-14T05:52:48.547Z,44.30
2024-02-14T05:55:46.851Z,47.08
2024-02-14T05:58:45.337Z,45.78
2024-02-14T06:01:43.646Z,62.40
2024-02-14T06:04:44.918Z,99.18
2024-02-14T06:07:43.955Z,93.47
2024-02-14T06:10:42.437Z,126.45
2024-02-14T06:13:41.983Z,116.07
2024-02-14T06:16:41.004Z,127.88
2024-02-14T06:19:41.283Z,120.25
2024-02-14T06:22:45.148Z,116.50
2024-02-14T06:25:49.055Z,106.68
2024-02-14T06:28:48.129Z,110.32
2024-02-14T06:31:46.700Z,95.57
2024-02-14T06:34:45.409Z,99.93
2024-02-14T06:37:48.995Z,100.32
2024-02-14T06:40:54.403Z,85.57
2024-02-14T06:43:52.766Z,88.38
2024-02-14T06:46:51.365Z,76.22
2024-02-14T06:49:51.278Z,71.43
2024-02-14T06:52:49.749Z,66.05
2024-02-14T06:55:48.144Z,58.47
2024-02-14T06:58:46.952Z,61.97
2024-02-14T07:01:45.291Z,64.60
2024-02-14T07:04:43.766Z,85.63
2024-02-14T07:07:42.454Z,88.53
2024-02-14T07:10:41.418Z,111.25
2024-02-14T07:13:39.873Z,119.10
2024-02-14T07:16:38.332Z,131.25
2024-02-14T07:19:37.235Z,139.10
2024-02-14T07:22:36.106Z,153.20
2024-02-14T07:25:34.567Z,175.80
2024-02-14T07:28:34.256Z,206.50
2024-02-14T07:31:33.464Z,224.13
2024-02-14T07:34:32.096Z,213.88
2024-02-14T07:37:30.572Z,223.60
2024-02-14T07:40:30.009Z,247.77
2024-02-14T07:43:28.530Z,246.63
2024-02-14T07:46:29.125Z,240.70
2024-02-14T07:49:27.642Z,243.82
2024-02-14T07:52:27.067Z,249.82
2024-02-14T07:55:26.056Z,253.77
2024-02-14T07:58:24.700Z,252.25
2024-02-14T08:01:23.117Z,248.75
2024-02-14T08:04:21.645Z,247.68
2024-02-14T08:07:20.109Z,256.20
2024-02-14T08:10:18.895Z,245.70
2024-02-14T08:13:19.073Z,269.40
2024-02-14T08:16:17.661Z,264.23
2024-02-14T08:19:17.774Z,252.05
2024-02-14T08:22:16.942Z,234.80
2024-02-14T08:25:15.360Z,263.05
2024-02-14T08:28:13.929Z,244.35
2024-02-14T08:31:13.668Z,259.83
2024-02-14T08:34:12.535Z,252.05
2024-02-14T08:37:10.985Z,250.85
2024-02-14T08:40:10.228Z,230.73
2024-02-14T08:43:08.888Z,266.23
2024-02-14T08:46:13.714Z,255.77
2024-02-14T08:49:12.748Z,245.65
2024-02-14T08:52:11.577Z,254.00
2024-02-14T08:55:16.236Z,246.93
2024-02-14T08:58:14.757Z,257.55
2024-02-14T09:01:15.995Z,258.17
2024-02-14T09:04:14.869Z,258.08
2024-02-14T09:07:14.537Z,264.48
2024-02-14T09:10:14.729Z,257.95
2024-02-14T09:13:13.123Z,262.17
2024-02-14T09:16:12.951Z,249.77
2024-02-14T09:19:14.147Z,251.35
2024-02-14T09:22:12.734Z,253.90
2024-02-14T09:25:11.754Z,255.45
2024-02-14T09:28:11.173Z,253.82
2024-02-14T09:31:11.784Z,252.02
2024-02-14T09:34:10.892Z,230.48
2024-02-14T09:37:09.427Z,230.85
2024-02-14T09:40:09.516Z,224.45
2024-02-14T09:43:12.120Z,224.85
2024-02-14T09:46:11.010Z,234.57
2024-02-14T09:49:10.765Z,210.35
2024-02-14T09:52:13.438Z,210.20
2024-02-14T09:55:14.077Z,203.38
2024-02-14T09:58:12.986Z,230.88
2024-02-14T10:01:11.364Z,212.15
2024-02-14T10:04:10.016Z,209.13
2024-02-14T10:07:08.362Z,199.68
2024-02-14T10:10:10.182Z,220.55
2024-02-14T10:13:09.656Z,213.18
2024-02-14T10:16:10.428Z,217.52
2024-02-14T10:19:17.889Z,249.27
2024-02-14T10:22:17.708Z,222.57
2024-02-14T10:25:16.722Z,205.82
2024-02-14T10:28:15.188Z,220.93
2024-02-14T10:31:17.699Z,219.98
2024-02-14T10:34:17.452Z,209.55
2024-02-14T10:37:18.306Z,210.00
2024-02-14T10:40:16.733Z,210.32
2024-02-14T10:43:15.769Z,208.43
2024-02-14T10:46:27.296Z,224.77
2024-02-14T10:49:31.089Z,227.05
2024-02-14T10:52:35.380Z,216.10
2024-02-14T10:55:35.071Z,212.77
2024-02-14T10:58:35.352Z,202.25
2024-02-14T11:01:34.732Z,214.48
2024-02-14T11:04:34.151Z,213.32
2024-02-14T11:07:33.599Z,194.48
2024-02-14T11:10:32.195Z,175.55
2024-02-14T11:13:34.891Z,149.70
2024-02-14T11:16:35.469Z,130.15
2024-02-14T11:19:38.330Z,124.43
2024-02-14T11:22:38.024Z,124.15
2024-02-14T11:25:41.067Z,108.72
2024-02-14T11:28:44.416Z,123.40
2024-02-14T11:34:44.198Z,127.13
2024-02-14T11:37:44.043Z,138.23
2024-02-14T11:40:42.837Z,132.55
2024-02-14T11:43:41.969Z,99.25
2024-02-14T11:46:40.674Z,99.82
2024-02-14T11:49:41.391Z,107.05
2024-02-14T11:52:39.890Z,94.80
2024-02-14T11:55:40.416Z,116.82
2024-02-14T11:58:38.915Z,124.85
2024-02-14T12:01:38.768Z,115.65
2024-02-14T12:04:38.481Z,122.55
2024-02-14T12:07:36.870Z,123.07
2024-02-14T12:10:37.144Z,133.32
2024-02-14T12:13:37.772Z,116.15
2024-02-14T12:16:39.439Z,106.15
2024-02-14T12:19:40.052Z,92.50
2024-02-14T12:22:39.223Z,78.45
2024-02-14T12:25:37.578Z,76.18
2024-02-14T12:28:36.859Z,76.72
2024-02-14T12:31:35.773Z,64.70
2024-02-14T12:34:35.951Z,58.17
2024-02-14T12:37:34.446Z,47.45
2024-02-14T12:40:34.776Z,54.78
2024-02-14T12:43:33.109Z,53.45
2024-02-14T12:46:31.676Z,51.25
2024-02-14T12:49:30.135Z,48.58
2024-02-14T12:52:29.480Z,44.03
2024-02-14T12:55:30.419Z,40.80
2024-02-14T12:58:29.009Z,50.63
2024-02-14T13:01:27.356Z,39.00
2024-02-14T13:04:26.409Z,36.58
2024-02-14T13:07:24.799Z,33.50
2024-02-14T13:10:24.115Z,40.63
2024-02-14T13:13:22.721Z,34.00
2024-02-14T13:16:22.528Z,30.15
2024-02-14T13:19:21.164Z,25.83
2024-02-14T13:22:20.280Z,30.58
2024-02-14T13:25:18.708Z,24.15
2024-02-14T13:28:17.212Z,24.17
2024-02-14T13:31:16.309Z,26.10
2024-02-14T13:34:16.549Z,24.30
2024-02-14T13:37:18.375Z,25.33
2024-02-14T13:40:17.214Z,27.42
2024-02-14T13:43:21.281Z,24.23
2024-02-14T13:46:20.736Z,28.17
2024-02-14T13:49:23.482Z,32.35
2024-02-14T13:52:22.422Z,31.25
2024-02-14T13:55:21.003Z,31.02
2024-02-14T13:58:34.097Z,25.25
2024-02-14T14:01:39.779Z,27.75
2024-02-14T14:04:43.756Z,27.85
2024-02-14T14:16:26.646Z,31.30
2024-02-14T14:19:30.929Z,24.25
2024-02-14T14:22:31.915Z,28.88
2024-02-14T14:25:33.000Z,24.85
2024-02-14T14:28:35.327Z,19.80
2024-02-14T14:31:33.933Z,20.15
2024-02-14T14:34:34.281Z,22.17
2024-02-14T14:37:33.041Z,23.63
2024-02-14T14:40:31.955Z,20.27
2024-02-14T14:43:30.238Z,16.02
2024-02-14T14:46:28.704Z,15.95
2024-02-14T14:49:27.074Z,22.05
2024-02-14T14:52:25.546Z,18.63
2024-02-14T14:55:23.770Z,17.63
2024-02-14T14:58:25.208Z,16.10
2024-02-14T15:01:24.876Z,18.25
2024-02-14T15:04:23.418Z,28.50
2024-02-14T15:07:22.874Z,26.52
2024-02-14T15:10:21.631Z,17.60
2024-02-14T15:13:20.829Z,18.63
2024-02-14T15:16:19.631Z,21.17
2024-02-14T15:19:18.084Z,14.27
2024-02-14T15:22:16.759Z,35.33
2024-02-14T15:25:15.041Z,23.88
2024-02-14T15:28:16.257Z,18.02
2024-02-14T15:31:30.062Z,18.13
2024-02-14T15:34:28.636Z,20.00
2024-02-14T15:37:27.973Z,17.15
2024-02-14T15:40:27.646Z,17.38
2024-02-14T15:43:27.040Z,18.70
2024-02-14T15:46:25.897Z,20.20
2024-02-14T15:49:24.402Z,19.55
2024-02-14T15:52:22.818Z,21.77
2024-02-14T15:55:21.029Z,20.73
2024-02-14T15:58:19.391Z,21.23
2024-02-14T16:01:19.771Z,12.90
2024-02-14T16:04:18.417Z,21.63
2024-02-14T16:07:16.656Z,19.85
2024-02-14T16:10:16.631Z,14.65
2024-02-14T16:13:19.689Z,12.27
2024-02-14T16:17:12.313Z,12.77
2024-02-14T16:20:00.900Z,14.25
2024-02-14T16:22:59.529Z,13.35
2024-02-14T16:25:57.764Z,11.32
2024-02-14T16:28:56.071Z,15.07
2024-02-14T16:31:54.285Z,14.23
2024-02-14T16:34:52.803Z,13.55
2024-02-14T16:37:51.227Z,11.23
2024-02-14T16:40:50.932Z,12.07
2024-02-14T16:43:49.200Z,13.70
2024-02-14T16:46:48.930Z,12.82
2024-02-14T16:49:47.223Z,16.75
2024-02-14T16:52:46.697Z,12.82
2024-02-14T16:55:44.932Z,14.35
2024-02-14T16:58:43.310Z,12.30
2024-02-14T17:01:41.595Z,12.10
2024-02-14T17:04:41.406Z,12.18
2024-02-14T17:07:39.743Z,15.30
2024-02-14T17:10:38.235Z,12.73
2024-02-14T17:13:36.733Z,10.68
2024-02-14T17:16:35.141Z,10.07
2024-02-14T17:19:33.437Z,9.82
2024-02-14T17:22:32.150Z,10.00
2024-02-14T17:25:30.601Z,10.85
2024-02-14T17:28:28.993Z,10.02
2024-02-14T17:31:27.468Z,10.63
2024-02-14T17:34:28.086Z,8.68
2024-02-14T17:37:26.700Z,9.57
2024-02-14T17:40:25.310Z,8.30
2024-02-14T17:43:23.493Z,9.48
2024-02-14T17:46:24.393Z,7.50
2024-02-14T17:49:23.587Z,9.80
2024-02-14T17:52:23.805Z,15.77
2024-02-14T17:55:22.092Z,13.88
2024-02-14T17:58:22.947Z,14.30
2024-02-14T18:01:21.459Z,14.25
2024-02-14T18:04:21.963Z,13.32
2024-02-14T18:07:22.473Z,8.85
2024-02-14T18:10:20.950Z,10.15
2024-02-14T18:13:19.959Z,8.27
2024-02-14T18:16:18.330Z,9.23
2024-02-14T18:19:17.014Z,8.40
2024-02-14T18:22:15.500Z,9.20
2024-02-14T18:25:14.156Z,12.80
2024-02-14T18:28:12.743Z,10.35
2024-02-14T18:31:14.011Z,9.82
2024-02-14T18:34:12.731Z,10.63
2024-02-14T18:37:12.658Z,8.68
2024-02-14T18:40:11.486Z,13.02
2024-02-14T18:43:09.704Z,10.45
2024-02-14T18:46:10.685Z,7.63
2024-02-14T18:49:09.453Z,9.55
2024-02-14T18:52:07.995Z,9.85
2024-02-14T18:55:06.807Z,10.35
2024-02-14T18:58:05.380Z,6.95
2024-02-14T19:01:03.691Z,9.95
2024-02-14T19:04:05.651Z,8.98
2024-02-14T19:07:04.341Z,7.90
2024-02-14T19:10:02.709Z,8.63
2024-02-14T19:13:02.384Z,6.97
2024-02-14T19:16:08.829Z,8.93
2024-02-14T19:19:13.955Z,8.00
2024-02-14T19:22:12.823Z,7.55
2024-02-14T19:25:11.099Z,6.43
2024-02-14T19:28:11.388Z,7.25
2024-02-14T19:31:12.768Z,6.03
2024-02-14T19:34:11.388Z,6.53
2024-02-14T19:37:10.271Z,6.97
2024-02-14T19:40:11.639Z,7.07
2024-02-14T19:43:11.790Z,6.30
2024-02-14T19:49:15.398Z,5.65
2024-02-14T19:52:14.011Z,6.97
2024-02-14T19:55:13.482Z,4.57
2024-02-14T19:58:11.993Z,7.30
2024-02-14T20:01:11.102Z,6.65
2024-02-14T20:04:11.436Z,7.35
2024-02-14T20:07:09.624Z,6.05
2024-02-14T20:10:08.582Z,6.75
2024-02-14T20:13:06.868Z,4.88
2024-02-14T20:16:05.956Z,3.53
2024-02-14T20:19:04.379Z,4.55
2024-02-14T20:22:02.857Z,6.35
2024-02-14T20:25:01.991Z,5.35
2024-02-14T20:28:00.358Z,4.93
2024-02-14T20:30:58.959Z,4.07
2024-02-14T20:33:57.448Z,6.07
2024-02-14T20:36:55.840Z,5.22
2024-02-14T20:39:54.320Z,5.13
2024-02-14T20:42:52.520Z,5.55
2024-02-14T20:45:50.925Z,6.10
2024-02-14T20:48:49.502Z,4.05
2024-02-14T20:51:48.092Z,6.30
2024-02-14T20:54:46.337Z,3.95
2024-02-14T20:57:44.892Z,3.63
2024-02-14T21:00:44.972Z,2.55
2024-02-14T21:03:43.269Z,2.88
2024-02-14T21:06:42.114Z,4.93
2024-02-14T21:09:40.725Z,3.97
2024-02-14T21:12:39.073Z,4.18
2024-02-14T21:15:37.631Z,5.15
2024-02-14T21:18:35.864Z,3.30
2024-02-14T21:21:37.526Z,3.22
2024-02-14T21:24:36.201Z,4.97
2024-02-14T21:27:36.521Z,3.75
2024-02-14T21:30:34.705Z,2.35
2024-02-14T21:33:33.479Z,2.90
2024-02-14T21:36:32.111Z,3.05
2024-02-14T21:39:30.565Z,2.83
2024-02-14T21:42:28.825Z,3.88
2024-02-14T21:45:27.118Z,3.25
2024-02-14T21:48:25.892Z,3.85
2024-02-14T21:51:24.325Z,2.85
2024-02-14T21:54:22.606Z,3.70
2024-02-14T21:57:20.935Z,2.97
2024-02-14T22:00:19.354Z,3.33
2024-02-14T22:03:17.651Z,6.55
2024-02-14T22:06:16.484Z,5.97
2024-02-14T22:09:16.928Z,2.70
2024-02-14T22:12:24.609Z,3.67
2024-02-14T22:15:24.655Z,3.75
2024-02-14T22:18:23.023Z,5.03
2024-02-14T22:21:21.475Z,3.45
2024-02-14T22:24:19.862Z,3.40
2024-02-14T22:27:19.736Z,3.40
2024-02-14T22:30:18.219Z,4.30
2024-02-14T22:33:17.201Z,2.35
2024-02-14T22:36:15.567Z,3.72
2024-02-14T22:39:14.016Z,4.20
2024-02-14T22:42:12.515Z,3.85
2024-02-14T22:45:14.653Z,5.50
2024-02-14T22:48:13.072Z,3.35
2024-02-14T22:51:11.680Z,4.05
2024-02-14T22:54:10.330Z,4.25
2024-02-14T22:57:10.026Z,4.10
2024-02-14T23:00:09.799Z,4.70
2024-02-14T23:03:08.876Z,4.05
2024-02-14T23:06:07.365Z,6.68
2024-02-14T23:09:07.331Z,3.13
2024-02-14T23:12:05.739Z,4.07
2024-02-14T23:15:07.394Z,3.53
2024-02-14T23:18:07.013Z,4.57
2024-02-14T23:21:05.531Z,5.25
2024-02-14T23:24:04.199Z,4.20
2024-02-14T23:27:02.768Z,4.75
2024-02-14T23:30:01.077Z,3.67
2024-02-14T23:33:00.432Z,4.25
2024-02-14T23:35:58.873Z,4.00
2024-02-14T23:38:57.291Z,4.30
2024-02-14T23:41:57.069Z,4.78
2024-02-14T23:44:56.376Z,5.15
2024-02-14T23:47:55.918Z,4.78
2024-02-14T23:50:54.363Z,4.13
2024-02-14T23:53:52.571Z,3.58
2024-02-14T23:56:51.041Z,4.20
2024-02-14T23:59:51.177Z,5.75
